sensor_id;sensor_type;location;lat;lon;timestamp;pressure;altitude;pressure_sealevel;temperature;humidity
6567;BME280;3317;43.994;22.878;2022-11-18T00:01:08;99885.31;;;10.43;64.55
6567;BME280;3317;43.994;22.878;2022-11-18T00:03:36;99904.75;;;10.55;64.51
6567;BME280;3317;43.994;22.878;2022-11-18T00:06:03;99883.28;;;10.45;63.96
6567;BME280;3317;43.994;22.878;2022-11-18T00:08:32;99915.09;;;10.51;63.90
6567;BME280;3317;43.994;22.878;2022-11-18T00:11:04;99897.31;;;10.49;64.62
6567;BME280;3317;43.994;22.878;2022-11-18T00:13:31;99898.34;;;10.48;64.56
6567;BME280;3317;43.994;22.878;2022-11-18T00:16:16;99902.91;;;10.47;64.56
6567;BME280;3317;43.994;22.878;2022-11-18T00:18:42;99901.56;;;10.43;64.52
6567;BME280;3317;43.994;22.878;2022-11-18T00:21:11;99903.25;;;10.44;64.17
6567;BME280;3317;43.994;22.878;2022-11-18T00:23:39;99897.19;;;10.42;64.67
6567;BME280;3317;43.994;22.878;2022-11-18T00:26:08;99905.31;;;10.42;64.75
6567;BME280;3317;43.994;22.878;2022-11-18T00:28:35;99885.66;;;10.32;65.10
6567;BME280;3317;43.994;22.878;2022-11-18T00:31:04;99891.88;;;10.40;65.84
6567;BME280;3317;43.994;22.878;2022-11-18T00:33:32;99868.44;;;10.24;65.99
6567;BME280;3317;43.994;22.878;2022-11-18T00:36:01;99903.59;;;10.33;65.39
6567;BME280;3317;43.994;22.878;2022-11-18T00:38:29;99893.78;;;10.32;65.23
6567;BME280;3317;43.994;22.878;2022-11-18T00:41:01;99851.72;;;10.04;65.08
6567;BME280;3317;43.994;22.878;2022-11-18T00:43:29;99890.25;;;10.31;64.95
6567;BME280;3317;43.994;22.878;2022-11-18T00:45:55;99891.25;;;10.30;65.18
6567;BME280;3317;43.994;22.878;2022-11-18T00:48:23;99880.75;;;10.27;65.09
6567;BME280;3317;43.994;22.878;2022-11-18T00:50:50;99887.03;;;10.27;64.97
6567;BME280;3317;43.994;22.878;2022-11-18T00:53:19;99886.16;;;10.27;65.34
6567;BME280;3317;43.994;22.878;2022-11-18T00:55:47;99876.34;;;10.26;65.52
6567;BME280;3317;43.994;22.878;2022-11-18T00:58:15;99856.59;;;10.17;65.56
6567;BME280;3317;43.994;22.878;2022-11-18T01:00:44;99872.31;;;10.30;65.09
6567;BME280;3317;43.994;22.878;2022-11-18T01:03:13;99861.47;;;10.22;65.58
6567;BME280;3317;43.994;22.878;2022-11-18T01:05:40;99861.63;;;10.28;65.39
6567;BME280;3317;43.994;22.878;2022-11-18T01:08:08;99870.94;;;10.34;65.21
6567;BME280;3317;43.994;22.878;2022-11-18T01:10:36;99871.75;;;10.35;65.35
6567;BME280;3317;43.994;22.878;2022-11-18T01:13:04;99871.59;;;10.36;65.48
6567;BME280;3317;43.994;22.878;2022-11-18T01:15:48;99867.72;;;10.39;65.10
6567;BME280;3317;43.994;22.878;2022-11-18T01:18:16;99871.25;;;10.39;65.30
6567;BME280;3317;43.994;22.878;2022-11-18T01:20:44;99867.38;;;10.42;64.93
6567;BME280;3317;43.994;22.878;2022-11-18T01:23:11;99864.66;;;10.42;64.54
6567;BME280;3317;43.994;22.878;2022-11-18T01:25:40;99857.22;;;10.44;64.86
6567;BME280;3317;43.994;22.878;2022-11-18T01:28:08;99863.28;;;10.46;65.12
6567;BME280;3317;43.994;22.878;2022-11-18T01:30:36;99863.50;;;10.45;64.92
6567;BME280;3317;43.994;22.878;2022-11-18T01:33:06;99853.84;;;10.42;64.99
6567;BME280;3317;43.994;22.878;2022-11-18T01:35:34;99837.59;;;10.42;65.19
6567;BME280;3317;43.994;22.878;2022-11-18T01:38:01;99845.84;;;10.49;64.86
6567;BME280;3317;43.994;22.878;2022-11-18T01:40:28;99842.13;;;10.50;65.08
6567;BME280;3317;43.994;22.878;2022-11-18T01:42:55;99848.41;;;10.50;64.62
6567;BME280;3317;43.994;22.878;2022-11-18T01:45:31;99842.97;;;10.50;64.60
6567;BME280;3317;43.994;22.878;2022-11-18T01:48:03;99842.97;;;10.50;64.41
6567;BME280;3317;43.994;22.878;2022-11-18T01:50:34;99845.84;;;10.49;64.74
6567;BME280;3317;43.994;22.878;2022-11-18T01:53:04;99837.56;;;10.50;64.76
6567;BME280;3317;43.994;22.878;2022-11-18T01:55:34;99834.84;;;10.50;65.04
6567;BME280;3317;43.994;22.878;2022-11-18T01:58:08;99835.88;;;10.49;64.73
6567;BME280;3317;43.994;22.878;2022-11-18T02:00:37;99838.59;;;10.49;64.68
6567;BME280;3317;43.994;22.878;2022-11-18T02:03:04;99841.28;;;10.49;65.44
6567;BME280;3317;43.994;22.878;2022-11-18T02:05:34;99831.28;;;10.50;64.80
6567;BME280;3317;43.994;22.878;2022-11-18T02:08:02;99842.13;;;10.50;64.67
6567;BME280;3317;43.994;22.878;2022-11-18T02:10:29;99835.88;;;10.49;64.84
6567;BME280;3317;43.994;22.878;2022-11-18T02:12:56;99839.56;;;10.48;65.36
6567;BME280;3317;43.994;22.878;2022-11-18T02:15:33;99828.75;;;10.40;65.44
6567;BME280;3317;43.994;22.878;2022-11-18T02:18:08;99840.63;;;10.39;65.79
6567;BME280;3317;43.994;22.878;2022-11-18T02:20:41;99842.66;;;10.37;65.85
6567;BME280;3317;43.994;22.878;2022-11-18T02:26:54;99825.78;;;10.10;66.67
6567;BME280;3317;43.994;22.878;2022-11-18T02:29:32;99844.06;;;10.16;66.88
6567;BME280;3317;43.994;22.878;2022-11-18T02:32:08;99847.78;;;10.15;66.83
6567;BME280;3317;43.994;22.878;2022-11-18T02:34:41;99841.72;;;10.13;66.77
6567;BME280;3317;43.994;22.878;2022-11-18T02:37:17;99836.97;;;10.15;66.88
6567;BME280;3317;43.994;22.878;2022-11-18T02:39:51;99838.34;;;10.11;66.85
6567;BME280;3317;43.994;22.878;2022-11-18T02:42:21;99845.09;;;10.15;66.51
6567;BME280;3317;43.994;22.878;2022-11-18T02:44:55;99836.97;;;10.15;66.70
6567;BME280;3317;43.994;22.878;2022-11-18T02:47:25;99844.94;;;10.17;66.60
6567;BME280;3317;43.994;22.878;2022-11-18T02:49:56;99826.81;;;10.09;66.34
6567;BME280;3317;43.994;22.878;2022-11-18T02:52:25;99833.25;;;10.16;66.09
6567;BME280;3317;43.994;22.878;2022-11-18T02:54:54;99830.69;;;10.14;65.79
6567;BME280;3317;43.994;22.878;2022-11-18T02:57:24;99840.50;;;10.15;65.52
6567;BME280;3317;43.994;22.878;2022-11-18T02:59:53;99840.50;;;10.15;65.56
6567;BME280;3317;43.994;22.878;2022-11-18T03:02:20;99838.81;;;10.14;65.51
6567;BME280;3317;43.994;22.878;2022-11-18T03:04:51;99829.19;;;10.12;65.44
6567;BME280;3317;43.994;22.878;2022-11-18T03:07:24;99833.59;;;10.13;65.47
6567;BME280;3317;43.994;22.878;2022-11-18T03:09:53;99835.63;;;10.11;65.02
6567;BME280;3317;43.994;22.878;2022-11-18T03:12:27;99835.78;;;10.09;65.20
6567;BME280;3317;43.994;22.878;2022-11-18T03:15:04;99822.41;;;10.08;65.73
6567;BME280;3317;43.994;22.878;2022-11-18T03:17:43;99823.13;;;10.02;67.43
6567;BME280;3317;43.994;22.878;2022-11-18T03:20:18;99837.16;;;9.97;67.61
6567;BME280;3317;43.994;22.878;2022-11-18T03:22:52;99834.97;;;9.92;67.00
6567;BME280;3317;43.994;22.878;2022-11-18T03:25:22;99839.72;;;9.90;66.37
6567;BME280;3317;43.994;22.878;2022-11-18T03:27:54;99834.66;;;9.87;66.00
6567;BME280;3317;43.994;22.878;2022-11-18T03:30:25;99827.72;;;9.84;66.23
6567;BME280;3317;43.994;22.878;2022-11-18T03:32:55;99818.09;;;9.74;65.90
6567;BME280;3317;43.994;22.878;2022-11-18T03:35:26;99820.31;;;9.78;65.71
6567;BME280;3317;43.994;22.878;2022-11-18T03:37:58;99819.28;;;9.79;65.62
6567;BME280;3317;43.994;22.878;2022-11-18T03:40:30;99809.13;;;9.73;66.61
6567;BME280;3317;43.994;22.878;2022-11-18T03:43:01;99821.63;;;9.74;66.32
6567;BME280;3317;43.994;22.878;2022-11-18T03:45:34;99774.69;;;9.42;65.72
6567;BME280;3317;43.994;22.878;2022-11-18T03:48:06;99825.19;;;9.66;65.40
6567;BME280;3317;43.994;22.878;2022-11-18T03:50:38;99827.91;;;9.66;64.92
6567;BME280;3317;43.994;22.878;2022-11-18T03:53:08;99824.22;;;9.59;65.53
6567;BME280;3317;43.994;22.878;2022-11-18T03:55:38;99835.69;;;9.61;66.78
6567;BME280;3317;43.994;22.878;2022-11-18T03:58:10;99829.63;;;9.59;67.22
6567;BME280;3317;43.994;22.878;2022-11-18T04:00:45;99838.06;;;9.56;66.40
6567;BME280;3317;43.994;22.878;2022-11-18T04:03:13;99837.38;;;9.54;65.75
6567;BME280;3317;43.994;22.878;2022-11-18T04:05:41;99833.16;;;9.51;65.53
6567;BME280;3317;43.994;22.878;2022-11-18T04:08:12;99835.69;;;9.44;65.60
6567;BME280;3317;43.994;22.878;2022-11-18T04:10:44;99836.53;;;9.45;66.04
6567;BME280;3317;43.994;22.878;2022-11-18T04:13:17;99840.25;;;9.44;65.22
6567;BME280;3317;43.994;22.878;2022-11-18T04:15:48;99844.31;;;9.40;66.18
6567;BME280;3317;43.994;22.878;2022-11-18T04:18:16;99837.88;;;9.33;67.27
6567;BME280;3317;43.994;22.878;2022-11-18T04:20:43;99840.75;;;9.31;67.60
6567;BME280;3317;43.994;22.878;2022-11-18T04:23:10;99841.09;;;9.28;67.44
6567;BME280;3317;43.994;22.878;2022-11-18T04:25:37;99818.94;;;9.16;66.99
6567;BME280;3317;43.994;22.878;2022-11-18T04:28:04;99818.44;;;9.21;68.01
6567;BME280;3317;43.994;22.878;2022-11-18T04:30:32;99813.53;;;9.08;68.22
6567;BME280;3317;43.994;22.878;2022-11-18T04:33:00;99758.75;;;8.64;68.42
6567;BME280;3317;43.994;22.878;2022-11-18T04:35:28;99824.66;;;8.96;69.42
6567;BME280;3317;43.994;22.878;2022-11-18T04:37:55;99826.53;;;8.96;70.11
6567;BME280;3317;43.994;22.878;2022-11-18T04:40:22;99838.34;;;8.95;70.93
6567;BME280;3317;43.994;22.878;2022-11-18T04:42:50;99830.22;;;8.86;71.81
6567;BME280;3317;43.994;22.878;2022-11-18T04:45:16;99838.47;;;8.85;72.53
6567;BME280;3317;43.994;22.878;2022-11-18T04:47:43;99844.72;;;8.85;72.26
6567;BME280;3317;43.994;22.878;2022-11-18T04:50:12;99831.06;;;8.87;71.84
6567;BME280;3317;43.994;22.878;2022-11-18T04:52:38;99829.88;;;8.90;71.49
6567;BME280;3317;43.994;22.878;2022-11-18T04:55:06;99822.44;;;8.92;71.73
6567;BME280;3317;43.994;22.878;2022-11-18T04:57:33;99815.69;;;8.87;72.20
6567;BME280;3317;43.994;22.878;2022-11-18T05:00:00;99820.91;;;8.81;72.57
6567;BME280;3317;43.994;22.878;2022-11-18T05:02:27;99812.63;;;8.74;73.11
6567;BME280;3317;43.994;22.878;2022-11-18T05:04:54;99817.72;;;8.85;73.04
6567;BME280;3317;43.994;22.878;2022-11-18T05:07:22;99823.63;;;8.89;71.96
6567;BME280;3317;43.994;22.878;2022-11-18T05:09:49;99823.31;;;8.92;72.31
6567;BME280;3317;43.994;22.878;2022-11-18T05:12:16;99818.41;;;8.96;70.99
6567;BME280;3317;43.994;22.878;2022-11-18T05:15:00;99812.66;;;8.91;71.65
6567;BME280;3317;43.994;22.878;2022-11-18T05:17:27;99819.09;;;8.98;71.95
6567;BME280;3317;43.994;22.878;2022-11-18T05:19:53;99818.91;;;8.99;72.27
6567;BME280;3317;43.994;22.878;2022-11-18T05:22:22;99821.44;;;9.01;72.86
6567;BME280;3317;43.994;22.878;2022-11-18T05:24:49;99814.88;;;9.04;72.98
6567;BME280;3317;43.994;22.878;2022-11-18T05:27:16;99822.50;;;9.08;73.16
6567;BME280;3317;43.994;22.878;2022-11-18T05:29:43;99820.47;;;9.10;72.68
6567;BME280;3317;43.994;22.878;2022-11-18T05:32:10;99817.56;;;9.12;71.81
6567;BME280;3317;43.994;22.878;2022-11-18T05:34:38;99821.66;;;9.16;71.68
6567;BME280;3317;43.994;22.878;2022-11-18T05:37:05;99814.22;;;9.18;70.63
6567;BME280;3317;43.994;22.878;2022-11-18T05:39:33;99812.03;;;9.22;70.61
6567;BME280;3317;43.994;22.878;2022-11-18T05:42:01;99799.53;;;9.21;71.43
6567;BME280;3317;43.994;22.878;2022-11-18T05:44:46;99796.63;;;9.22;71.02
6567;BME280;3317;43.994;22.878;2022-11-18T05:47:14;99792.44;;;9.20;71.70
6567;BME280;3317;43.994;22.878;2022-11-18T05:49:41;99789.03;;;9.18;71.92
6567;BME280;3317;43.994;22.878;2022-11-18T05:52:08;99788.34;;;9.15;73.15
6567;BME280;3317;43.994;22.878;2022-11-18T05:54:39;99801.88;;;9.15;74.12
6567;BME280;3317;43.994;22.878;2022-11-18T05:57:08;99805.09;;;9.19;74.55
6567;BME280;3317;43.994;22.878;2022-11-18T05:59:34;99815.75;;;9.21;74.17
6567;BME280;3317;43.994;22.878;2022-11-18T06:02:04;99816.56;;;9.21;73.85
6567;BME280;3317;43.994;22.878;2022-11-18T06:04:35;99828.94;;;9.24;73.70
6567;BME280;3317;43.994;22.878;2022-11-18T06:07:06;99840.06;;;9.29;73.69
6567;BME280;3317;43.994;22.878;2022-11-18T06:09:38;99846.84;;;9.33;73.67
6567;BME280;3317;43.994;22.878;2022-11-18T06:12:07;99849.03;;;9.38;73.58
6567;BME280;3317;43.994;22.878;2022-11-18T06:14:38;99845.81;;;9.42;73.49
6567;BME280;3317;43.994;22.878;2022-11-18T06:17:08;99846.66;;;9.51;73.51
6567;BME280;3317;43.994;22.878;2022-11-18T06:19:37;99839.41;;;9.52;73.17
6567;BME280;3317;43.994;22.878;2022-11-18T06:22:04;99851.59;;;9.64;73.80
6567;BME280;3317;43.994;22.878;2022-11-18T06:24:33;99858.34;;;9.68;73.69
6567;BME280;3317;43.994;22.878;2022-11-18T06:27:02;99856.31;;;9.70;73.92
6567;BME280;3317;43.994;22.878;2022-11-18T06:29:29;99857.00;;;9.72;74.04
6567;BME280;3317;43.994;22.878;2022-11-18T06:31:56;99847.34;;;9.78;74.14
6567;BME280;3317;43.994;22.878;2022-11-18T06:34:23;99832.47;;;9.82;74.35
6567;BME280;3317;43.994;22.878;2022-11-18T06:36:51;99817.41;;;9.80;74.28
6567;BME280;3317;43.994;22.878;2022-11-18T06:39:18;99826.19;;;9.90;74.13
6567;BME280;3317;43.994;22.878;2022-11-18T06:41:45;99836.00;;;9.99;74.26
6567;BME280;3317;43.994;22.878;2022-11-18T06:44:13;99845.59;;;10.02;74.37
6567;BME280;3317;43.994;22.878;2022-11-18T06:46:39;99833.94;;;10.02;74.43
6567;BME280;3317;43.994;22.878;2022-11-18T06:49:21;99841.03;;;10.11;74.05
6567;BME280;3317;43.994;22.878;2022-11-18T06:51:49;99841.00;;;10.19;74.03
6567;BME280;3317;43.994;22.878;2022-11-18T06:54:15;99805.50;;;10.06;74.37
6567;BME280;3317;43.994;22.878;2022-11-18T06:56:42;99834.88;;;10.34;74.18
6567;BME280;3317;43.994;22.878;2022-11-18T06:59:09;99832.84;;;10.44;74.24
6567;BME280;3317;43.994;22.878;2022-11-18T07:01:39;99829.91;;;10.54;74.05
6567;BME280;3317;43.994;22.878;2022-11-18T07:04:07;99834.94;;;10.65;73.18
6567;BME280;3317;43.994;22.878;2022-11-18T07:06:35;99843.88;;;10.74;72.96
6567;BME280;3317;43.994;22.878;2022-11-18T07:09:04;99834.56;;;10.77;72.74
6567;BME280;3317;43.994;22.878;2022-11-18T07:11:31;99841.63;;;10.86;72.29
6567;BME280;3317;43.994;22.878;2022-11-18T07:13:58;99834.28;;;10.95;72.21
6567;BME280;3317;43.994;22.878;2022-11-18T07:16:26;99779.56;;;10.68;71.77
6567;BME280;3317;43.994;22.878;2022-11-18T07:18:55;99822.63;;;10.94;71.63
6567;BME280;3317;43.994;22.878;2022-11-18T07:21:23;99809.06;;;10.94;71.69
6567;BME280;3317;43.994;22.878;2022-11-18T07:23:51;99794.69;;;10.85;71.73
6567;BME280;3317;43.994;22.878;2022-11-18T07:26:18;99800.03;;;11.02;72.00
6567;BME280;3317;43.994;22.878;2022-11-18T07:28:45;99792.84;;;11.09;71.82
6567;BME280;3317;43.994;22.878;2022-11-18T07:31:13;99781.28;;;11.16;71.65
6567;BME280;3317;43.994;22.878;2022-11-18T07:33:41;99786.72;;;11.16;71.41
6567;BME280;3317;43.994;22.878;2022-11-18T07:36:11;99792.00;;;11.32;71.82
6567;BME280;3317;43.994;22.878;2022-11-18T07:38:39;99785.66;;;11.40;71.98
6567;BME280;3317;43.994;22.878;2022-11-18T07:41:08;99779.09;;;11.34;71.61
6567;BME280;3317;43.994;22.878;2022-11-18T07:43:36;99759.63;;;11.31;71.28
6567;BME280;3317;43.994;22.878;2022-11-18T07:46:15;99775.84;;;11.39;71.61
6567;BME280;3317;43.994;22.878;2022-11-18T07:48:43;99778.91;;;11.36;71.64
6567;BME280;3317;43.994;22.878;2022-11-18T07:51:13;99776.69;;;11.39;71.83
6567;BME280;3317;43.994;22.878;2022-11-18T07:53:41;99778.84;;;11.44;71.90
6567;BME280;3317;43.994;22.878;2022-11-18T07:56:08;99777.25;;;11.50;72.07
6567;BME280;3317;43.994;22.878;2022-11-18T07:58:36;99770.75;;;11.59;71.66
6567;BME280;3317;43.994;22.878;2022-11-18T08:01:07;99771.41;;;11.76;71.33
6567;BME280;3317;43.994;22.878;2022-11-18T08:03:35;99767.28;;;11.80;71.26
6567;BME280;3317;43.994;22.878;2022-11-18T08:06:03;99764.59;;;11.95;70.50
6567;BME280;3317;43.994;22.878;2022-11-18T08:08:32;99762.66;;;12.04;70.53
6567;BME280;3317;43.994;22.878;2022-11-18T08:11:01;99755.00;;;12.08;70.33
6567;BME280;3317;43.994;22.878;2022-11-18T08:13:28;99750.47;;;12.15;69.97
6567;BME280;3317;43.994;22.878;2022-11-18T08:15:56;99747.75;;;12.15;70.05
6567;BME280;3317;43.994;22.878;2022-11-18T08:18:23;99743.75;;;12.11;70.20
6567;BME280;3317;43.994;22.878;2022-11-18T08:20:51;99746.06;;;12.14;70.13
6567;BME280;3317;43.994;22.878;2022-11-18T08:23:17;99750.13;;;12.18;70.29
6567;BME280;3317;43.994;22.878;2022-11-18T08:25:46;99748.31;;;12.25;70.07
6567;BME280;3317;43.994;22.878;2022-11-18T08:28:14;99730.03;;;12.34;69.66
6567;BME280;3317;43.994;22.878;2022-11-18T08:30:41;99730.09;;;12.41;69.33
6567;BME280;3317;43.994;22.878;2022-11-18T08:33:07;99742.75;;;12.49;69.71
6567;BME280;3317;43.994;22.878;2022-11-18T08:35:35;99742.38;;;12.52;69.70
6567;BME280;3317;43.994;22.878;2022-11-18T08:38:02;99745.81;;;12.61;68.95
6567;BME280;3317;43.994;22.878;2022-11-18T08:40:29;99755.66;;;12.62;69.06
6567;BME280;3317;43.994;22.878;2022-11-18T08:42:57;99757.72;;;12.60;69.64
6567;BME280;3317;43.994;22.878;2022-11-18T08:45:24;99743.28;;;12.59;69.49
6567;BME280;3317;43.994;22.878;2022-11-18T08:47:51;99740.47;;;12.52;70.40
6567;BME280;3317;43.994;22.878;2022-11-18T08:50:18;99730.41;;;12.46;70.83
6567;BME280;3317;43.994;22.878;2022-11-18T08:52:45;99731.78;;;12.42;70.92
6567;BME280;3317;43.994;22.878;2022-11-18T08:55:12;99723.84;;;12.41;71.65
6567;BME280;3317;43.994;22.878;2022-11-18T08:57:39;99722.91;;;12.33;71.79
6567;BME280;3317;43.994;22.878;2022-11-18T09:00:08;99722.72;;;12.35;71.61
6567;BME280;3317;43.994;22.878;2022-11-18T09:02:35;99714.13;;;12.31;71.73
6567;BME280;3317;43.994;22.878;2022-11-18T09:05:03;99703.56;;;12.21;71.86
6567;BME280;3317;43.994;22.878;2022-11-18T09:07:29;99713.28;;;12.31;71.88
6567;BME280;3317;43.994;22.878;2022-11-18T09:09:56;99727.44;;;12.26;71.87
6567;BME280;3317;43.994;22.878;2022-11-18T09:12:23;99717.78;;;12.23;71.52
6567;BME280;3317;43.994;22.878;2022-11-18T09:14:50;99729.03;;;12.20;71.32
6567;BME280;3317;43.994;22.878;2022-11-18T09:17:18;99672.28;;;11.95;70.70
6567;BME280;3317;43.994;22.878;2022-11-18T09:19:45;99696.44;;;12.20;71.38
6567;BME280;3317;43.994;22.878;2022-11-18T09:22:12;99703.06;;;12.33;71.28
6567;BME280;3317;43.994;22.878;2022-11-18T09:24:39;99698.28;;;12.35;71.54
6567;BME280;3317;43.994;22.878;2022-11-18T09:27:06;99711.22;;;12.33;71.79
6567;BME280;3317;43.994;22.878;2022-11-18T09:29:33;99719.25;;;12.41;71.62
6567;BME280;3317;43.994;22.878;2022-11-18T09:32:01;99713.72;;;12.34;70.83
6567;BME280;3317;43.994;22.878;2022-11-18T09:34:29;99702.22;;;12.32;70.79
6567;BME280;3317;43.994;22.878;2022-11-18T09:36:56;99699.50;;;12.32;71.23
6567;BME280;3317;43.994;22.878;2022-11-18T09:39:23;99699.63;;;12.24;71.20
6567;BME280;3317;43.994;22.878;2022-11-18T09:41:55;99708.22;;;12.28;71.21
6567;BME280;3317;43.994;22.878;2022-11-18T09:44:43;99699.03;;;12.29;71.32
6567;BME280;3317;43.994;22.878;2022-11-18T09:47:21;99687.22;;;12.36;71.14
6567;BME280;3317;43.994;22.878;2022-11-18T09:49:53;99685.59;;;12.42;71.17
6567;BME280;3317;43.994;22.878;2022-11-18T09:52:24;99683.56;;;12.44;71.05
6567;BME280;3317;43.994;22.878;2022-11-18T09:54:53;99683.34;;;12.46;71.09
6567;BME280;3317;43.994;22.878;2022-11-18T09:57:23;99674.16;;;12.47;71.22
6567;BME280;3317;43.994;22.878;2022-11-18T09:59:51;99667.50;;;12.49;71.17
6567;BME280;3317;43.994;22.878;2022-11-18T10:02:35;99657.28;;;12.51;70.69
6567;BME280;3317;43.994;22.878;2022-11-18T10:05:15;99646.28;;;12.60;70.74
6567;BME280;3317;43.994;22.878;2022-11-18T10:07:48;99641.31;;;12.63;70.51
6567;BME280;3317;43.994;22.878;2022-11-18T10:10:22;99641.31;;;12.63;70.59
6567;BME280;3317;43.994;22.878;2022-11-18T10:12:55;99646.03;;;12.76;70.37
6567;BME280;3317;43.994;22.878;2022-11-18T10:15:28;99609.47;;;12.57;70.37
6567;BME280;3317;43.994;22.878;2022-11-18T10:18:07;99643.94;;;12.78;70.42
6567;BME280;3317;43.994;22.878;2022-11-18T10:20:49;99634.00;;;12.86;70.23
6567;BME280;3317;43.994;22.878;2022-11-18T10:23:23;99635.66;;;12.87;70.27
6567;BME280;3317;43.994;22.878;2022-11-18T10:25:53;99627.25;;;12.81;70.33
6567;BME280;3317;43.994;22.878;2022-11-18T10:28:22;99614.31;;;12.84;70.11
6567;BME280;3317;43.994;22.878;2022-11-18T10:30:50;99618.72;;;12.85;70.55
6567;BME280;3317;43.994;22.878;2022-11-18T10:33:23;99613.47;;;12.83;70.66
6567;BME280;3317;43.994;22.878;2022-11-18T10:36:08;99599.41;;;12.79;70.81
6567;BME280;3317;43.994;22.878;2022-11-18T10:38:35;99606.34;;;12.82;70.92
6567;BME280;3317;43.994;22.878;2022-11-18T10:41:04;99607.63;;;12.86;70.95
6567;BME280;3317;43.994;22.878;2022-11-18T10:43:47;99601.75;;;12.82;71.26
6567;BME280;3317;43.994;22.878;2022-11-18T10:46:22;99600.06;;;12.81;71.57
6567;BME280;3317;43.994;22.878;2022-11-18T10:49:09;99593.16;;;12.79;72.13
6567;BME280;3317;43.994;22.878;2022-11-18T10:51:39;99595.34;;;12.90;72.41
6567;BME280;3317;43.994;22.878;2022-11-18T10:54:08;99603.16;;;13.00;71.86
6567;BME280;3317;43.994;22.878;2022-11-18T10:56:44;99591.88;;;13.03;71.16
6567;BME280;3317;43.994;22.878;2022-11-18T10:59:20;99594.34;;;12.98;71.64
6567;BME280;3317;43.994;22.878;2022-11-18T11:01:58;99587.19;;;12.90;71.56
6567;BME280;3317;43.994;22.878;2022-11-18T11:04:26;99581.16;;;12.95;71.81
6567;BME280;3317;43.994;22.878;2022-11-18T11:06:57;99581.53;;;12.92;71.42
6567;BME280;3317;43.994;22.878;2022-11-18T11:09:26;99558.69;;;12.86;71.68
6567;BME280;3317;43.994;22.878;2022-11-18T11:11:56;99569.25;;;12.96;71.93
6567;BME280;3317;43.994;22.878;2022-11-18T11:14:27;99563.13;;;12.94;71.43
6567;BME280;3317;43.994;22.878;2022-11-18T11:16:59;99557.09;;;12.99;71.02
6567;BME280;3317;43.994;22.878;2022-11-18T11:19:36;99561.75;;;13.05;70.71
6567;BME280;3317;43.994;22.878;2022-11-18T11:22:10;99505.16;;;12.58;70.91
6567;BME280;3317;43.994;22.878;2022-11-18T11:24:38;99562.13;;;12.95;70.93
6567;BME280;3317;43.994;22.878;2022-11-18T11:30:12;99575.91;;;12.93;70.70
6567;BME280;3317;43.994;22.878;2022-11-18T11:35:46;99571.69;;;12.91;70.91
6567;BME280;3317;43.994;22.878;2022-11-18T11:38:24;99574.91;;;13.01;70.96
6567;BME280;3317;43.994;22.878;2022-11-18T11:41:05;99560.16;;;13.17;70.54
6567;BME280;3317;43.994;22.878;2022-11-18T11:43:47;99571.56;;;13.34;69.83
6567;BME280;3317;43.994;22.878;2022-11-18T11:46:36;99560.66;;;13.28;69.91
6567;BME280;3317;43.994;22.878;2022-11-18T11:49:16;99495.13;;;12.87;69.71
6567;BME280;3317;43.994;22.878;2022-11-18T11:51:48;99545.13;;;13.21;69.37
6567;BME280;3317;43.994;22.878;2022-11-18T11:54:31;99536.34;;;13.26;69.17
6567;BME280;3317;43.994;22.878;2022-11-18T11:57:03;99543.88;;;13.24;69.21
6567;BME280;3317;43.994;22.878;2022-11-18T11:59:36;99545.97;;;13.22;69.05
6567;BME280;3317;43.994;22.878;2022-11-18T12:02:23;99537.13;;;13.20;68.98
6567;BME280;3317;43.994;22.878;2022-11-18T12:04:58;99538.78;;;13.14;69.49
6567;BME280;3317;43.994;22.878;2022-11-18T12:07:28;99531.94;;;13.18;69.22
6567;BME280;3317;43.994;22.878;2022-11-18T12:10:19;99525.41;;;13.13;69.06
6567;BME280;3317;43.994;22.878;2022-11-18T12:12:55;99523.25;;;13.01;69.18
6567;BME280;3317;43.994;22.878;2022-11-18T12:15:44;99528.69;;;13.01;69.55
6567;BME280;3317;43.994;22.878;2022-11-18T12:18:18;99539.16;;;13.04;69.30
6567;BME280;3317;43.994;22.878;2022-11-18T12:20:49;99534.13;;;13.01;69.41
6567;BME280;3317;43.994;22.878;2022-11-18T12:23:19;99523.16;;;12.88;69.18
6567;BME280;3317;43.994;22.878;2022-11-18T12:25:59;99543.47;;;12.92;69.37
6567;BME280;3317;43.994;22.878;2022-11-18T12:28:30;99548.72;;;12.93;69.23
6567;BME280;3317;43.994;22.878;2022-11-18T12:31:25;99534.25;;;12.93;69.61
6567;BME280;3317;43.994;22.878;2022-11-18T12:33:54;99533.19;;;12.87;69.36
6567;BME280;3317;43.994;22.878;2022-11-18T12:36:25;99544.00;;;12.80;69.71
6567;BME280;3317;43.994;22.878;2022-11-18T12:38:53;99543.78;;;12.75;70.02
6567;BME280;3317;43.994;22.878;2022-11-18T12:41:56;99543.13;;;12.73;70.26
6567;BME280;3317;43.994;22.878;2022-11-18T12:44:42;99552.72;;;12.69;70.60
6567;BME280;3317;43.994;22.878;2022-11-18T12:47:09;99549.03;;;12.77;70.56
6567;BME280;3317;43.994;22.878;2022-11-18T12:50:10;99559.94;;;12.84;70.18
6567;BME280;3317;43.994;22.878;2022-11-18T12:52:48;99545.44;;;12.76;70.14
6567;BME280;3317;43.994;22.878;2022-11-18T12:55:18;99552.88;;;12.89;70.19
6567;BME280;3317;43.994;22.878;2022-11-18T12:57:47;99553.69;;;12.90;69.73
6567;BME280;3317;43.994;22.878;2022-11-18T13:00:16;99549.13;;;12.90;69.82
6567;BME280;3317;43.994;22.878;2022-11-18T13:02:50;99564.38;;;12.91;70.11
6567;BME280;3317;43.994;22.878;2022-11-18T13:05:20;99557.50;;;12.95;69.73
6567;BME280;3317;43.994;22.878;2022-11-18T13:07:51;99554.00;;;13.02;69.65
6567;BME280;3317;43.994;22.878;2022-11-18T13:10:39;99551.34;;;13.08;69.18
6567;BME280;3317;43.994;22.878;2022-11-18T13:13:20;99529.91;;;12.99;69.25
6567;BME280;3317;43.994;22.878;2022-11-18T13:15:49;99556.59;;;13.17;69.37
6567;BME280;3317;43.994;22.878;2022-11-18T13:18:33;99552.00;;;13.17;69.34
6567;BME280;3317;43.994;22.878;2022-11-18T13:21:19;99535.88;;;13.16;69.54
6567;BME280;3317;43.994;22.878;2022-11-18T13:24:04;99541.75;;;13.19;69.56
6567;BME280;3317;43.994;22.878;2022-11-18T13:26:32;99546.78;;;13.22;68.93
6567;BME280;3317;43.994;22.878;2022-11-18T13:29:25;99550.38;;;13.23;68.80
6567;BME280;3317;43.994;22.878;2022-11-18T13:32:03;99553.09;;;13.23;68.47
6567;BME280;3317;43.994;22.878;2022-11-18T13:34:42;99539.25;;;13.24;68.44
6567;BME280;3317;43.994;22.878;2022-11-18T13:37:14;99544.06;;;13.22;69.18
6567;BME280;3317;43.994;22.878;2022-11-18T13:39:43;99551.41;;;13.22;69.98
6567;BME280;3317;43.994;22.878;2022-11-18T13:42:15;99552.19;;;13.16;71.23
6567;BME280;3317;43.994;22.878;2022-11-18T13:44:49;99531.88;;;13.12;71.81